sensor_id;sensor_type;location;lat;lon;timestamp;P1;durP1;ratioP1;P2;durP2;ratioP2
50281;SDS011;36176;51.506;10.272;2023-05-10T00:02:09;4.30;;;3.70;;
50281;SDS011;36176;51.506;10.272;2023-05-10T00:04:36;3.50;;;3.20;;
50281;SDS011;36176;51.506;10.272;2023-05-10T00:07:03;3.50;;;3.20;;
50281;SDS011;36176;51.506;10.272;2023-05-10T00:09:30;3.53;;;2.80;;
50281;SDS011;36176;51.506;10.272;2023-05-10T00:11:57;3.73;;;3.30;;
50281;SDS011;36176;51.506;10.272;2023-05-10T00:14:25;3.63;;;3.23;;
50281;SDS011;36176;51.506;10.272;2023-05-10T00:16:52;3.97;;;3.57;;
50281;SDS011;36176;51.506;10.272;2023-05-10T00:19:21;4.30;;;4.00;;
50281;SDS011;36176;51.506;10.272;2023-05-10T00:21:48;3.53;;;3.23;;
50281;SDS011;36176;51.506;10.272;2023-05-10T00:24:15;3.90;;;3.60;;
50281;SDS011;36176;51.506;10.272;2023-05-10T00:26:42;3.20;;;2.90;;
50281;SDS011;36176;51.506;10.272;2023-05-10T00:29:09;3.47;;;2.73;;
50281;SDS011;36176;51.506;10.272;2023-05-10T00:31:37;3.00;;;2.80;;
50281;SDS011;36176;51.506;10.272;2023-05-10T00:34:04;5.40;;;2.97;;
50281;SDS011;36176;51.506;10.272;2023-05-10T00:36:31;3.83;;;3.47;;
50281;SDS011;36176;51.506;10.272;2023-05-10T00:38:58;5.77;;;3.23;;
50281;SDS011;36176;51.506;10.272;2023-05-10T00:41:25;4.13;;;3.53;;
50281;SDS011;36176;51.506;10.272;2023-05-10T00:43:52;3.03;;;2.70;;
50281;SDS011;36176;51.506;10.272;2023-05-10T00:46:19;3.07;;;2.77;;
50281;SDS011;36176;51.506;10.272;2023-05-10T00:48:47;3.63;;;2.60;;
50281;SDS011;36176;51.506;10.272;2023-05-10T00:51:14;3.10;;;2.80;;
50281;SDS011;36176;51.506;10.272;2023-05-10T00:53:42;4.80;;;3.20;;
50281;SDS011;36176;51.506;10.272;2023-05-10T00:56:10;5.30;;;3.30;;
50281;SDS011;36176;51.506;10.272;2023-05-10T00:58:38;4.73;;;2.77;;
50281;SDS011;36176;51.506;10.272;2023-05-10T01:01:06;3.43;;;2.90;;
50281;SDS011;36176;51.506;10.272;2023-05-10T01:03:34;4.30;;;2.80;;
50281;SDS011;36176;51.506;10.272;2023-05-10T01:06:02;2.97;;;2.77;;
50281;SDS011;36176;51.506;10.272;2023-05-10T01:08:31;3.20;;;2.90;;
50281;SDS011;36176;51.506;10.272;2023-05-10T01:10:59;3.00;;;2.80;;
50281;SDS011;36176;51.506;10.272;2023-05-10T01:13:30;4.07;;;3.50;;
50281;SDS011;36176;51.506;10.272;2023-05-10T01:16:03;3.83;;;2.60;;
50281;SDS011;36176;51.506;10.272;2023-05-10T01:18:33;2.87;;;2.57;;
50281;SDS011;36176;51.506;10.272;2023-05-10T01:26:49;3.13;;;2.73;;
50281;SDS011;36176;51.506;10.272;2023-05-10T01:32:46;3.20;;;2.90;;
50281;SDS011;36176;51.506;10.272;2023-05-10T01:35:46;4.67;;;2.97;;
50281;SDS011;36176;51.506;10.272;2023-05-10T01:38:20;2.97;;;2.67;;
50281;SDS011;36176;51.506;10.272;2023-05-10T01:41:13;3.20;;;2.50;;
50281;SDS011;36176;51.506;10.272;2023-05-10T01:46:37;9.20;;;2.63;;
50281;SDS011;36176;51.506;10.272;2023-05-10T01:49:11;3.10;;;2.80;;
50281;SDS011;36176;51.506;10.272;2023-05-10T01:51:53;3.70;;;2.63;;
50281;SDS011;36176;51.506;10.272;2023-05-10T01:54:30;2.73;;;2.40;;
50281;SDS011;36176;51.506;10.272;2023-05-10T01:57:02;4.43;;;2.80;;
50281;SDS011;36176;51.506;10.272;2023-05-10T01:59:34;3.00;;;2.80;;
50281;SDS011;36176;51.506;10.272;2023-05-10T02:02:08;4.87;;;2.83;;
50281;SDS011;36176;51.506;10.272;2023-05-10T02:04:39;3.57;;;3.27;;
50281;SDS011;36176;51.506;10.272;2023-05-10T02:07:07;3.13;;;2.83;;
50281;SDS011;36176;51.506;10.272;2023-05-10T02:09:36;4.77;;;3.30;;
50281;SDS011;36176;51.506;10.272;2023-05-10T02:12:04;6.33;;;3.27;;
50281;SDS011;36176;51.506;10.272;2023-05-10T02:14:34;5.53;;;5.03;;
50281;SDS011;36176;51.506;10.272;2023-05-10T02:17:04;4.53;;;3.80;;
50281;SDS011;36176;51.506;10.272;2023-05-10T02:19:33;3.87;;;3.57;;
50281;SDS011;36176;51.506;10.272;2023-05-10T02:22:01;4.83;;;3.60;;
50281;SDS011;36176;51.506;10.272;2023-05-10T02:24:29;4.80;;;3.77;;
50281;SDS011;36176;51.506;10.272;2023-05-10T02:26:59;4.63;;;3.83;;
50281;SDS011;36176;51.506;10.272;2023-05-10T02:29:27;3.53;;;3.23;;
50281;SDS011;36176;51.506;10.272;2023-05-10T02:31:55;5.70;;;3.80;;
50281;SDS011;36176;51.506;10.272;2023-05-10T02:34:25;4.10;;;3.80;;
50281;SDS011;36176;51.506;10.272;2023-05-10T02:36:54;6.63;;;3.50;;
50281;SDS011;36176;51.506;10.272;2023-05-10T02:39:23;3.67;;;3.37;;
50281;SDS011;36176;51.506;10.272;2023-05-10T02:41:52;4.07;;;3.70;;
50281;SDS011;36176;51.506;10.272;2023-05-10T02:44:20;4.40;;;3.73;;
50281;SDS011;36176;51.506;10.272;2023-05-10T02:46:50;3.50;;;3.30;;
50281;SDS011;36176;51.506;10.272;2023-05-10T02:49:17;4.27;;;3.47;;
50281;SDS011;36176;51.506;10.272;2023-05-10T02:51:47;4.07;;;3.37;;
50281;SDS011;36176;51.506;10.272;2023-05-10T02:54:19;3.97;;;3.57;;
50281;SDS011;36176;51.506;10.272;2023-05-10T02:56:50;3.57;;;3.30;;
50281;SDS011;36176;51.506;10.272;2023-05-10T02:59:20;5.70;;;3.83;;
50281;SDS011;36176;51.506;10.272;2023-05-10T03:01:47;3.90;;;3.60;;
50281;SDS011;36176;51.506;10.272;2023-05-10T03:04:14;3.83;;;3.40;;
50281;SDS011;36176;51.506;10.272;2023-05-10T03:06:41;5.10;;;3.63;;
50281;SDS011;36176;51.506;10.272;2023-05-10T03:09:09;5.17;;;3.50;;
50281;SDS011;36176;51.506;10.272;2023-05-10T03:17:05;4.37;;;3.97;;
50281;SDS011;36176;51.506;10.272;2023-05-10T03:19:40;5.10;;;4.70;;
50281;SDS011;36176;51.506;10.272;2023-05-10T03:22:13;4.83;;;4.43;;
50281;SDS011;36176;51.506;10.272;2023-05-10T03:24:50;4.63;;;4.20;;
50281;SDS011;36176;51.506;10.272;2023-05-10T03:27:22;7.40;;;6.70;;
50281;SDS011;36176;51.506;10.272;2023-05-10T03:29:52;5.13;;;4.67;;
50281;SDS011;36176;51.506;10.272;2023-05-10T03:32:22;4.47;;;4.17;;
50281;SDS011;36176;51.506;10.272;2023-05-10T03:34:49;5.07;;;4.67;;
50281;SDS011;36176;51.506;10.272;2023-05-10T03:37:16;4.40;;;4.00;;
50281;SDS011;36176;51.506;10.272;2023-05-10T03:39:45;5.37;;;3.97;;
50281;SDS011;36176;51.506;10.272;2023-05-10T03:42:12;4.80;;;4.33;;
50281;SDS011;36176;51.506;10.272;2023-05-10T03:44:39;3.80;;;3.50;;
50281;SDS011;36176;51.506;10.272;2023-05-10T03:47:07;4.73;;;4.20;;
50281;SDS011;36176;51.506;10.272;2023-05-10T03:49:34;5.67;;;5.03;;
50281;SDS011;36176;51.506;10.272;2023-05-10T03:52:02;4.97;;;4.43;;
50281;SDS011;36176;51.506;10.272;2023-05-10T03:54:29;6.13;;;4.83;;
50281;SDS011;36176;51.506;10.272;2023-05-10T03:56:56;6.07;;;4.07;;
50281;SDS011;36176;51.506;10.272;2023-05-10T03:59:23;5.10;;;4.70;;
50281;SDS011;36176;51.506;10.272;2023-05-10T04:01:50;6.37;;;5.27;;
50281;SDS011;36176;51.506;10.272;2023-05-10T04:04:17;9.13;;;8.53;;
50281;SDS011;36176;51.506;10.272;2023-05-10T04:06:45;7.03;;;6.53;;
50281;SDS011;36176;51.506;10.272;2023-05-10T04:09:12;7.93;;;7.43;;
50281;SDS011;36176;51.506;10.272;2023-05-10T04:11:40;7.17;;;6.67;;
50281;SDS011;36176;51.506;10.272;2023-05-10T04:14:07;7.90;;;7.23;;
50281;SDS011;36176;51.506;10.272;2023-05-10T04:16:34;8.33;;;7.53;;
50281;SDS011;36176;51.506;10.272;2023-05-10T04:19:02;7.73;;;7.20;;
50281;SDS011;36176;51.506;10.272;2023-05-10T04:21:29;7.33;;;6.67;;
50281;SDS011;36176;51.506;10.272;2023-05-10T04:23:57;8.43;;;7.63;;
50281;SDS011;36176;51.506;10.272;2023-05-10T04:26:24;7.37;;;6.77;;
50281;SDS011;36176;51.506;10.272;2023-05-10T04:28:52;6.17;;;5.57;;
50281;SDS011;36176;51.506;10.272;2023-05-10T04:31:19;7.03;;;6.53;;
50281;SDS011;36176;51.506;10.272;2023-05-10T04:33:46;7.07;;;6.40;;
50281;SDS011;36176;51.506;10.272;2023-05-10T04:36:13;8.57;;;8.07;;
50281;SDS011;36176;51.506;10.272;2023-05-10T04:38:40;7.47;;;6.87;;
50281;SDS011;36176;51.506;10.272;2023-05-10T04:41:08;5.90;;;5.40;;
50281;SDS011;36176;51.506;10.272;2023-05-10T04:43:36;7.00;;;6.60;;
50281;SDS011;36176;51.506;10.272;2023-05-10T04:46:05;7.30;;;6.80;;
50281;SDS011;36176;51.506;10.272;2023-05-10T04:48:32;5.37;;;4.80;;
50281;SDS011;36176;51.506;10.272;2023-05-10T04:51:00;5.37;;;4.87;;
50281;SDS011;36176;51.506;10.272;2023-05-10T04:53:27;6.00;;;5.53;;
50281;SDS011;36176;51.506;10.272;2023-05-10T04:55:54;8.27;;;7.57;;
50281;SDS011;36176;51.506;10.272;2023-05-10T04:58:21;6.23;;;5.73;;
50281;SDS011;36176;51.506;10.272;2023-05-10T05:00:49;6.90;;;6.30;;
50281;SDS011;36176;51.506;10.272;2023-05-10T05:03:16;7.67;;;7.13;;
50281;SDS011;36176;51.506;10.272;2023-05-10T05:05:46;6.90;;;6.17;;
50281;SDS011;36176;51.506;10.272;2023-05-10T05:08:34;6.67;;;6.07;;
50281;SDS011;36176;51.506;10.272;2023-05-10T05:11:01;7.57;;;6.97;;
50281;SDS011;36176;51.506;10.272;2023-05-10T05:13:28;7.73;;;7.20;;
50281;SDS011;36176;51.506;10.272;2023-05-10T05:15:55;7.33;;;6.73;;
50281;SDS011;36176;51.506;10.272;2023-05-10T05:18:22;8.47;;;7.77;;
50281;SDS011;36176;51.506;10.272;2023-05-10T05:20:49;8.40;;;7.60;;
50281;SDS011;36176;51.506;10.272;2023-05-10T05:23:18;11.70;;;10.80;;
50281;SDS011;36176;51.506;10.272;2023-05-10T05:25:47;10.33;;;9.43;;
50281;SDS011;36176;51.506;10.272;2023-05-10T05:28:14;13.20;;;12.30;;
50281;SDS011;36176;51.506;10.272;2023-05-10T05:30:41;8.77;;;8.17;;
50281;SDS011;36176;51.506;10.272;2023-05-10T05:33:08;9.67;;;9.07;;
50281;SDS011;36176;51.506;10.272;2023-05-10T05:35:36;11.73;;;10.93;;
50281;SDS011;36176;51.506;10.272;2023-05-10T05:38:03;9.63;;;9.00;;
50281;SDS011;36176;51.506;10.272;2023-05-10T05:40:30;12.70;;;11.73;;
50281;SDS011;36176;51.506;10.272;2023-05-10T05:42:57;13.07;;;12.10;;
50281;SDS011;36176;51.506;10.272;2023-05-10T05:45:24;12.97;;;12.07;;
50281;SDS011;36176;51.506;10.272;2023-05-10T05:47:51;12.23;;;11.30;;
50281;SDS011;36176;51.506;10.272;2023-05-10T05:50:18;11.50;;;10.57;;
50281;SDS011;36176;51.506;10.272;2023-05-10T05:52:45;25.47;;;23.63;;
50281;SDS011;36176;51.506;10.272;2023-05-10T05:55:12;11.17;;;10.37;;
50281;SDS011;36176;51.506;10.272;2023-05-10T05:57:40;18.20;;;17.10;;
50281;SDS011;36176;51.506;10.272;2023-05-10T06:00:07;12.13;;;11.33;;
50281;SDS011;36176;51.506;10.272;2023-05-10T06:02:34;12.33;;;11.43;;
50281;SDS011;36176;51.506;10.272;2023-05-10T06:05:02;11.13;;;10.23;;
50281;SDS011;36176;51.506;10.272;2023-05-10T06:07:29;11.90;;;11.00;;
50281;SDS011;36176;51.506;10.272;2023-05-10T06:09:56;11.77;;;10.97;;
50281;SDS011;36176;51.506;10.272;2023-05-10T06:12:23;10.80;;;10.00;;
50281;SDS011;36176;51.506;10.272;2023-05-10T06:14:50;10.37;;;9.60;;
50281;SDS011;36176;51.506;10.272;2023-05-10T06:17:18;10.23;;;9.53;;
50281;SDS011;36176;51.506;10.272;2023-05-10T06:19:45;13.40;;;12.50;;
50281;SDS011;36176;51.506;10.272;2023-05-10T06:22:12;8.80;;;8.20;;
50281;SDS011;36176;51.506;10.272;2023-05-10T06:24:39;10.30;;;9.50;;
50281;SDS011;36176;51.506;10.272;2023-05-10T06:27:06;8.47;;;7.90;;
50281;SDS011;36176;51.506;10.272;2023-05-10T06:29:33;8.60;;;8.00;;
50281;SDS011;36176;51.506;10.272;2023-05-10T06:32:00;10.47;;;9.67;;
50281;SDS011;36176;51.506;10.272;2023-05-10T06:34:28;10.87;;;10.03;;
50281;SDS011;36176;51.506;10.272;2023-05-10T06:36:55;12.47;;;11.57;;
50281;SDS011;36176;51.506;10.272;2023-05-10T06:39:22;8.10;;;7.50;;
50281;SDS011;36176;51.506;10.272;2023-05-10T06:41:49;12.30;;;11.50;;
50281;SDS011;36176;51.506;10.272;2023-05-10T06:44:16;9.37;;;8.70;;
50281;SDS011;36176;51.506;10.272;2023-05-10T06:46:43;8.33;;;7.73;;
50281;SDS011;36176;51.506;10.272;2023-05-10T06:49:10;10.40;;;9.70;;
50281;SDS011;36176;51.506;10.272;2023-05-10T06:51:37;8.97;;;8.37;;
50281;SDS011;36176;51.506;10.272;2023-05-10T06:54:04;8.43;;;7.83;;
50281;SDS011;36176;51.506;10.272;2023-05-10T06:56:31;8.37;;;7.77;;
50281;SDS011;36176;51.506;10.272;2023-05-10T06:58:58;11.10;;;10.40;;
50281;SDS011;36176;51.506;10.272;2023-05-10T07:01:25;10.37;;;9.67;;
50281;SDS011;36176;51.506;10.272;2023-05-10T07:03:52;7.60;;;7.10;;
50281;SDS011;36176;51.506;10.272;2023-05-10T07:06:19;8.43;;;7.83;;
50281;SDS011;36176;51.506;10.272;2023-05-10T07:08:58;7.20;;;6.50;;
50281;SDS011;36176;51.506;10.272;2023-05-10T07:11:25;7.97;;;7.47;;
50281;SDS011;36176;51.506;10.272;2023-05-10T07:13:52;10.77;;;10.07;;
50281;SDS011;36176;51.506;10.272;2023-05-10T07:16:19;11.53;;;10.83;;
50281;SDS011;36176;51.506;10.272;2023-05-10T07:18:48;6.80;;;6.23;;
50281;SDS011;36176;51.506;10.272;2023-05-10T07:21:17;9.07;;;8.37;;
50281;SDS011;36176;51.506;10.272;2023-05-10T07:23:44;8.80;;;8.20;;
50281;SDS011;36176;51.506;10.272;2023-05-10T07:26:11;7.07;;;6.67;;
50281;SDS011;36176;51.506;10.272;2023-05-10T07:28:38;8.40;;;7.90;;
50281;SDS011;36176;51.506;10.272;2023-05-10T07:31:05;10.53;;;9.83;;
50281;SDS011;36176;51.506;10.272;2023-05-10T07:33:33;7.50;;;7.00;;
50281;SDS011;36176;51.506;10.272;2023-05-10T07:36:00;11.20;;;10.50;;
50281;SDS011;36176;51.506;10.272;2023-05-10T07:38:27;7.33;;;6.73;;
50281;SDS011;36176;51.506;10.272;2023-05-10T07:40:54;6.53;;;6.13;;
50281;SDS011;36176;51.506;10.272;2023-05-10T07:43:21;5.63;;;5.33;;
50281;SDS011;36176;51.506;10.272;2023-05-10T07:45:48;6.27;;;5.93;;
50281;SDS011;36176;51.506;10.272;2023-05-10T07:48:15;4.87;;;4.60;;
50281;SDS011;36176;51.506;10.272;2023-05-10T07:50:42;6.20;;;5.90;;
50281;SDS011;36176;51.506;10.272;2023-05-10T07:53:09;24.27;;;22.40;;
50281;SDS011;36176;51.506;10.272;2023-05-10T07:55:38;5.57;;;5.27;;
50281;SDS011;36176;51.506;10.272;2023-05-10T07:58:05;5.73;;;5.43;;
50281;SDS011;36176;51.506;10.272;2023-05-10T08:00:32;5.63;;;5.33;;
50281;SDS011;36176;51.506;10.272;2023-05-10T08:02:59;5.33;;;5.03;;
50281;SDS011;36176;51.506;10.272;2023-05-10T08:05:26;6.23;;;5.93;;
50281;SDS011;36176;51.506;10.272;2023-05-10T08:07:54;4.63;;;4.37;;
50281;SDS011;36176;51.506;10.272;2023-05-10T08:10:21;4.53;;;4.33;;
50281;SDS011;36176;51.506;10.272;2023-05-10T08:12:48;3.13;;;2.93;;
50281;SDS011;36176;51.506;10.272;2023-05-10T08:15:15;5.50;;;5.20;;
50281;SDS011;36176;51.506;10.272;2023-05-10T08:17:44;3.70;;;3.50;;
50281;SDS011;36176;51.506;10.272;2023-05-10T08:20:11;3.73;;;3.53;;
50281;SDS011;36176;51.506;10.272;2023-05-10T08:22:39;3.53;;;3.33;;
50281;SDS011;36176;51.506;10.272;2023-05-10T08:25:06;2.83;;;2.73;;
50281;SDS011;36176;51.506;10.272;2023-05-10T08:27:34;2.47;;;2.20;;
50281;SDS011;36176;51.506;10.272;2023-05-10T08:30:01;3.33;;;3.13;;
50281;SDS011;36176;51.506;10.272;2023-05-10T08:32:28;2.00;;;1.90;;
50281;SDS011;36176;51.506;10.272;2023-05-10T08:34:55;2.80;;;2.60;;
50281;SDS011;36176;51.506;10.272;2023-05-10T08:37:23;3.47;;;3.30;;
50281;SDS011;36176;51.506;10.272;2023-05-10T08:39:57;3.17;;;2.97;;
50281;SDS011;36176;51.506;10.272;2023-05-10T08:42:25;3.97;;;3.77;;
50281;SDS011;36176;51.506;10.272;2023-05-10T08:44:57;2.20;;;2.10;;
50281;SDS011;36176;51.506;10.272;2023-05-10T08:47:25;3.53;;;3.33;;
50281;SDS011;36176;51.506;10.272;2023-05-10T08:49:53;2.63;;;2.53;;
50281;SDS011;36176;51.506;10.272;2023-05-10T08:52:21;2.30;;;2.20;;
50281;SDS011;36176;51.506;10.272;2023-05-10T08:54:51;2.27;;;2.17;;
50281;SDS011;36176;51.506;10.272;2023-05-10T08:57:19;2.77;;;2.57;;
50281;SDS011;36176;51.506;10.272;2023-05-10T08:59:47;2.13;;;2.03;;
50281;SDS011;36176;51.506;10.272;2023-05-10T09:02:14;3.03;;;2.17;;
50281;SDS011;36176;51.506;10.272;2023-05-10T09:04:44;3.13;;;2.93;;
50281;SDS011;36176;51.506;10.272;2023-05-10T09:07:11;2.80;;;2.10;;
50281;SDS011;36176;51.506;10.272;2023-05-10T09:09:39;1.97;;;1.87;;
50281;SDS011;36176;51.506;10.272;2023-05-10T09:12:06;1.67;;;1.50;;
50281;SDS011;36176;51.506;10.272;2023-05-10T09:14:37;2.67;;;2.53;;
50281;SDS011;36176;51.506;10.272;2023-05-10T09:17:04;1.77;;;1.67;;
50281;SDS011;36176;51.506;10.272;2023-05-10T09:19:33;2.50;;;2.40;;
50281;SDS011;36176;51.506;10.272;2023-05-10T09:22:00;1.30;;;1.30;;
50281;SDS011;36176;51.506;10.272;2023-05-10T09:24:29;1.50;;;1.40;;
50281;SDS011;36176;51.506;10.272;2023-05-10T09:26:57;2.03;;;1.93;;
50281;SDS011;36176;51.506;10.272;2023-05-10T09:29:25;2.03;;;1.73;;
50281;SDS011;36176;51.506;10.272;2023-05-10T09:31:52;2.30;;;2.20;;
50281;SDS011;36176;51.506;10.272;2023-05-10T09:34:31;2.95;;;2.75;;
50281;SDS011;36176;51.506;10.272;2023-05-10T09:37:00;1.38;;;1.38;;
50281;SDS011;36176;51.506;10.272;2023-05-10T16:19:33;7.15;;;6.43;;
50281;SDS011;36176;51.506;10.272;2023-05-10T16:22:01;6.47;;;5.87;;
50281;SDS011;36176;51.506;10.272;2023-05-10T16:24:28;6.50;;;6.00;;
50281;SDS011;36176;51.506;10.272;2023-05-10T16:26:55;6.53;;;6.03;;
50281;SDS011;36176;51.506;10.272;2023-05-10T16:29:25;7.60;;;7.00;;
50281;SDS011;36176;51.506;10.272;2023-05-10T16:31:52;5.77;;;5.37;;
50281;SDS011;36176;51.506;10.272;2023-05-10T16:34:19;8.33;;;7.70;;
50281;SDS011;36176;51.506;10.272;2023-05-10T16:36:49;6.53;;;5.53;;
50281;SDS011;36176;51.506;10.272;2023-05-10T16:39:17;6.67;;;6.17;;
50281;SDS011;36176;51.506;10.272;2023-05-10T16:41:44;9.43;;;8.70;;
50281;SDS011;36176;51.506;10.272;2023-05-10T16:44:11;8.07;;;7.27;;
50281;SDS011;36176;51.506;10.272;2023-05-10T16:46:38;5.20;;;4.70;;
50281;SDS011;36176;51.506;10.272;2023-05-10T16:49:05;7.97;;;7.17;;
50281;SDS011;36176;51.506;10.272;2023-05-10T16:51:32;12.73;;;11.63;;
50281;SDS011;36176;51.506;10.272;2023-05-10T16:53:59;13.80;;;12.50;;
50281;SDS011;36176;51.506;10.272;2023-05-10T16:56:27;9.30;;;8.33;;
50281;SDS011;36176;51.506;10.272;2023-05-10T16:58:54;6.67;;;6.07;;
50281;SDS011;36176;51.506;10.272;2023-05-10T17:01:20;6.53;;;6.03;;
50281;SDS011;36176;51.506;10.272;2023-05-10T17:03:52;5.53;;;5.03;;
50281;SDS011;36176;51.506;10.272;2023-05-10T17:06:19;7.00;;;6.40;;
50281;SDS011;36176;51.506;10.272;2023-05-10T17:08:46;6.93;;;6.33;;
50281;SDS011;36176;51.506;10.272;2023-05-10T17:11:13;7.00;;;6.40;;
50281;SDS011;36176;51.506;10.272;2023-05-10T17:13:40;7.70;;;7.10;;
50281;SDS011;36176;51.506;10.272;2023-05-10T17:16:07;13.83;;;12.77;;
50281;SDS011;36176;51.506;10.272;2023-05-10T17:18:34;8.13;;;7.43;;
50281;SDS011;36176;51.506;10.272;2023-05-10T17:21:02;7.93;;;7.13;;
50281;SDS011;36176;51.506;10.272;2023-05-10T17:23:29;7.20;;;6.60;;
50281;SDS011;36176;51.506;10.272;2023-05-10T17:25:57;6.63;;;6.13;;
50281;SDS011;36176;51.506;10.272;2023-05-10T17:28:27;8.63;;;7.93;;
50281;SDS011;36176;51.506;10.272;2023-05-10T17:30:55;7.73;;;7.13;;
50281;SDS011;36176;51.506;10.272;2023-05-10T17:33:23;7.17;;;6.57;;
50281;SDS011;36176;51.506;10.272;2023-05-10T17:35:50;7.77;;;7.17;;
50281;SDS011;36176;51.506;10.272;2023-05-10T17:38:17;8.87;;;8.17;;
50281;SDS011;36176;51.506;10.272;2023-05-10T17:40:44;12.73;;;11.83;;
50281;SDS011;36176;51.506;10.272;2023-05-10T17:43:11;7.97;;;7.47;;
50281;SDS011;36176;51.506;10.272;2023-05-10T17:45:39;9.03;;;8.40;;
50281;SDS011;36176;51.506;10.272;2023-05-10T17:48:06;6.57;;;5.37;;
50281;SDS011;36176;51.506;10.272;2023-05-10T17:50:33;7.53;;;7.03;;
50281;SDS011;36176;51.506;10.272;2023-05-10T17:53:01;6.30;;;5.80;;
50281;SDS011;36176;51.506;10.272;2023-05-10T17:55:28;9.17;;;8.50;;
50281;SDS011;36176;51.506;10.272;2023-05-10T17:57:59;6.67;;;6.10;;
50281;SDS011;36176;51.506;10.272;2023-05-10T18:00:26;8.80;;;8.10;;
50281;SDS011;36176;51.506;10.272;2023-05-10T18:02:53;8.23;;;7.63;;
50281;SDS011;36176;51.506;10.272;2023-05-10T18:05:20;9.17;;;8.47;;
50281;SDS011;36176;51.506;10.272;2023-05-10T18:07:48;9.10;;;8.30;;
50281;SDS011;36176;51.506;10.272;2023-05-10T18:10:15;11.40;;;10.67;;
50281;SDS011;36176;51.506;10.272;2023-05-10T18:12:44;9.73;;;9.03;;
50281;SDS011;36176;51.506;10.272;2023-05-10T18:15:12;9.77;;;9.07;;
50281;SDS011;36176;51.506;10.272;2023-05-10T18:17:39;11.53;;;10.63;;
50281;SDS011;36176;51.506;10.272;2023-05-10T18:20:06;11.57;;;10.77;;
50281;SDS011;36176;51.506;10.272;2023-05-10T18:22:34;11.00;;;10.00;;
50281;SDS011;36176;51.506;10.272;2023-05-10T18:25:01;9.23;;;8.23;;
50281;SDS011;36176;51.506;10.272;2023-05-10T18:27:44;10.63;;;9.80;;
50281;SDS011;36176;51.506;10.272;2023-05-10T18:30:11;6.87;;;6.33;;
50281;SDS011;36176;51.506;10.272;2023-05-10T18:32:38;8.13;;;7.47;;
50281;SDS011;36176;51.506;10.272;2023-05-10T18:35:05;12.17;;;11.07;;
50281;SDS011;36176;51.506;10.272;2023-05-10T18:37:34;11.63;;;10.93;;
50281;SDS011;36176;51.506;10.272;2023-05-10T18:40:02;10.40;;;9.60;;
50281;SDS011;36176;51.506;10.272;2023-05-10T18:42:30;11.23;;;10.43;;
50281;SDS011;36176;51.506;10.272;2023-05-10T18:44:58;9.57;;;8.80;;
50281;SDS011;36176;51.506;10.272;2023-05-10T18:47:25;10.10;;;9.20;;
50281;SDS011;36176;51.506;10.272;2023-05-10T18:49:52;12.83;;;11.97;;
50281;SDS011;36176;51.506;10.272;2023-05-10T18:52:19;11.70;;;10.73;;
50281;SDS011;36176;51.506;10.272;2023-05-10T18:54:47;11.80;;;11.10;;
50281;SDS011;36176;51.506;10.272;2023-05-10T18:57:15;10.57;;;9.87;;
50281;SDS011;36176;51.506;10.272;2023-05-10T18:59:42;9.73;;;9.00;;
50281;SDS011;36176;51.506;10.272;2023-05-10T19:02:09;10.50;;;9.80;;
50281;SDS011;36176;51.506;10.272;2023-05-10T19:04:36;12.77;;;11.73;;
50281;SDS011;36176;51.506;10.272;2023-05-10T19:07:03;13.33;;;12.47;;
50281;SDS011;36176;51.506;10.272;2023-05-10T19:09:30;7.63;;;7.03;;
50281;SDS011;36176;51.506;10.272;2023-05-10T19:11:58;8.67;;;7.97;;
50281;SDS011;36176;51.506;10.272;2023-05-10T19:14:26;11.83;;;10.90;;
50281;SDS011;36176;51.506;10.272;2023-05-10T19:16:53;8.10;;;7.40;;
50281;SDS011;36176;51.506;10.272;2023-05-10T19:19:20;8.17;;;7.47;;
50281;SDS011;36176;51.506;10.272;2023-05-10T19:21:48;6.00;;;5.60;;
50281;SDS011;36176;51.506;10.272;2023-05-10T19:24:15;6.10;;;5.70;;
50281;SDS011;36176;51.506;10.272;2023-05-10T19:26:44;6.70;;;6.20;;
50281;SDS011;36176;51.506;10.272;2023-05-10T19:29:17;10.53;;;9.80;;
50281;SDS011;36176;51.506;10.272;2023-05-10T19:31:45;11.13;;;10.33;;
50281;SDS011;36176;51.506;10.272;2023-05-10T19:34:13;11.70;;;10.90;;
50281;SDS011;36176;51.506;10.272;2023-05-10T19:36:40;8.20;;;7.60;;
50281;SDS011;36176;51.506;10.272;2023-05-10T19:39:07;11.90;;;11.10;;
50281;SDS011;36176;51.506;10.272;2023-05-10T19:41:34;8.90;;;8.20;;
50281;SDS011;36176;51.506;10.272;2023-05-10T19:44:01;9.97;;;9.27;;
50281;SDS011;36176;51.506;10.272;2023-05-10T19:46:30;8.93;;;8.23;;
50281;SDS011;36176;51.506;10.272;2023-05-10T19:48:57;9.33;;;8.60;;
50281;SDS011;36176;51.506;10.272;2023-05-10T19:51:24;6.93;;;6.33;;
50281;SDS011;36176;51.506;10.272;2023-05-10T19:53:51;6.97;;;6.37;;
50281;SDS011;36176;51.506;10.272;2023-05-10T19:56:18;11.60;;;10.80;;
50281;SDS011;36176;51.506;10.272;2023-05-10T19:58:45;9.33;;;8.57;;
50281;SDS011;36176;51.506;10.272;2023-05-10T20:01:12;11.10;;;10.30;;
50281;SDS011;36176;51.506;10.272;2023-05-10T20:03:40;9.90;;;9.23;;
50281;SDS011;36176;51.506;10.272;2023-05-10T20:06:07;9.73;;;9.03;;
50281;SDS011;36176;51.506;10.272;2023-05-10T20:08:34;9.77;;;9.07;;
50281;SDS011;36176;51.506;10.272;2023-05-10T20:11:01;10.13;;;9.37;;
50281;SDS011;36176;51.506;10.272;2023-05-10T20:13:29;9.10;;;8.40;;
50281;SDS011;36176;51.506;10.272;2023-05-10T20:15:58;9.13;;;8.43;;
50281;SDS011;36176;51.506;10.272;2023-05-10T20:18:25;10.07;;;9.27;;
50281;SDS011;36176;51.506;10.272;2023-05-10T20:20:56;11.17;;;10.43;;
50281;SDS011;36176;51.506;10.272;2023-05-10T20:23:39;8.87;;;8.17;;
50281;SDS011;36176;51.506;10.272;2023-05-10T20:26:06;7.73;;;7.13;;
50281;SDS011;36176;51.506;10.272;2023-05-10T20:28:33;9.27;;;8.53;;
50281;SDS011;36176;51.506;10.272;2023-05-10T20:31:00;10.13;;;9.43;;
50281;SDS011;36176;51.506;10.272;2023-05-10T20:33:27;14.83;;;13.83;;
50281;SDS011;36176;51.506;10.272;2023-05-10T20:35:54;10.63;;;9.70;;
50281;SDS011;36176;51.506;10.272;2023-05-10T20:38:24;11.33;;;10.50;;
50281;SDS011;36176;51.506;10.272;2023-05-10T20:40:51;8.43;;;7.83;;
50281;SDS011;36176;51.506;10.272;2023-05-10T20:43:18;9.50;;;8.70;;
50281;SDS011;36176;51.506;10.272;2023-05-10T20:45:47;12.07;;;11.10;;
50281;SDS011;36176;51.506;10.272;2023-05-10T20:48:14;11.33;;;10.43;;
50281;SDS011;36176;51.506;10.272;2023-05-10T20:50:42;11.83;;;10.93;;
50281;SDS011;36176;51.506;10.272;2023-05-10T20:53:09;10.93;;;10.10;;
50281;SDS011;36176;51.506;10.272;2023-05-10T20:55:37;11.97;;;11.07;;
50281;SDS011;36176;51.506;10.272;2023-05-10T20:58:05;10.57;;;9.70;;
50281;SDS011;36176;51.506;10.272;2023-05-10T21:00:32;7.10;;;6.50;;
50281;SDS011;36176;51.506;10.272;2023-05-10T21:02:59;11.77;;;10.83;;
50281;SDS011;36176;51.506;10.272;2023-05-10T21:05:26;10.63;;;9.80;;
50281;SDS011;36176;51.506;10.272;2023-05-10T21:07:53;9.03;;;8.33;;
50281;SDS011;36176;51.506;10.272;2023-05-10T21:10:20;12.60;;;11.60;;
50281;SDS011;36176;51.506;10.272;2023-05-10T21:12:47;10.97;;;9.97;;
50281;SDS011;36176;51.506;10.272;2023-05-10T21:15:16;13.20;;;12.20;;
50281;SDS011;36176;51.506;10.272;2023-05-10T21:17:46;14.83;;;13.73;;
50281;SDS011;36176;51.506;10.272;2023-05-10T21:20:13;8.87;;;7.97;;
50281;SDS011;36176;51.506;10.272;2023-05-10T21:22:41;9.73;;;8.83;;
50281;SDS011;36176;51.506;10.272;2023-05-10T21:25:08;12.23;;;11.17;;
50281;SDS011;36176;51.506;10.272;2023-05-10T21:27:35;14.63;;;13.43;;
50281;SDS011;36176;51.506;10.272;2023-05-10T21:30:02;10.80;;;9.90;;
50281;SDS011;36176;51.506;10.272;2023-05-10T21:32:30;11.93;;;11.13;;